sensor_id;sensor_type;location;lat;lon;timestamp;P1;durP1;ratioP1;P2;durP2;ratioP2
9106;SDS011;4589;48.690;8.952;2023-08-12T00:00:10;6.67;;;5.97;;
9106;SDS011;4589;48.690;8.952;2023-08-12T00:02:40;6.13;;;5.50;;
9106;SDS011;4589;48.690;8.952;2023-08-12T00:05:06;6.73;;;6.03;;
9106;SDS011;4589;48.690;8.952;2023-08-12T00:07:32;9.80;;;7.13;;
9106;SDS011;4589;48.690;8.952;2023-08-12T00:09:59;14.60;;;6.60;;
9106;SDS011;4589;48.690;8.952;2023-08-12T00:12:25;8.30;;;6.57;;
9106;SDS011;4589;48.690;8.952;2023-08-12T00:14:52;14.47;;;6.70;;
9106;SDS011;4589;48.690;8.952;2023-08-12T00:17:18;9.97;;;6.37;;
9106;SDS011;4589;48.690;8.952;2023-08-12T00:19:44;10.70;;;6.50;;
9106;SDS011;4589;48.690;8.952;2023-08-12T00:22:10;9.90;;;7.03;;
9106;SDS011;4589;48.690;8.952;2023-08-12T00:24:36;10.80;;;7.50;;
9106;SDS011;4589;48.690;8.952;2023-08-12T00:27:02;6.73;;;6.13;;
9106;SDS011;4589;48.690;8.952;2023-08-12T00:29:27;10.40;;;7.10;;
9106;SDS011;4589;48.690;8.952;2023-08-12T00:31:53;7.83;;;7.10;;
9106;SDS011;4589;48.690;8.952;2023-08-12T00:34:20;7.90;;;6.70;;
9106;SDS011;4589;48.690;8.952;2023-08-12T00:36:46;7.57;;;6.87;;
9106;SDS011;4589;48.690;8.952;2023-08-12T00:39:13;7.70;;;6.60;;
9106;SDS011;4589;48.690;8.952;2023-08-12T00:41:40;6.83;;;6.00;;
9106;SDS011;4589;48.690;8.952;2023-08-12T00:44:06;9.13;;;7.37;;
9106;SDS011;4589;48.690;8.952;2023-08-12T00:46:32;11.00;;;7.10;;
9106;SDS011;4589;48.690;8.952;2023-08-12T00:48:59;7.90;;;7.10;;
9106;SDS011;4589;48.690;8.952;2023-08-12T00:51:25;7.67;;;6.97;;
9106;SDS011;4589;48.690;8.952;2023-08-12T00:53:51;8.37;;;7.50;;
9106;SDS011;4589;48.690;8.952;2023-08-12T00:56:18;8.67;;;7.13;;
9106;SDS011;4589;48.690;8.952;2023-08-12T00:58:44;8.57;;;7.67;;
9106;SDS011;4589;48.690;8.952;2023-08-12T01:01:11;8.50;;;6.57;;
9106;SDS011;4589;48.690;8.952;2023-08-12T01:03:38;12.43;;;7.27;;
9106;SDS011;4589;48.690;8.952;2023-08-12T01:06:04;9.83;;;7.00;;
9106;SDS011;4589;48.690;8.952;2023-08-12T01:08:30;8.33;;;7.23;;
9106;SDS011;4589;48.690;8.952;2023-08-12T01:11:04;10.40;;;6.70;;
9106;SDS011;4589;48.690;8.952;2023-08-12T01:13:33;8.63;;;5.93;;
9106;SDS011;4589;48.690;8.952;2023-08-12T01:16:03;10.70;;;7.03;;
9106;SDS011;4589;48.690;8.952;2023-08-12T01:18:30;7.30;;;6.60;;
9106;SDS011;4589;48.690;8.952;2023-08-12T01:20:56;6.97;;;6.37;;
9106;SDS011;4589;48.690;8.952;2023-08-12T01:23:22;7.00;;;6.40;;
9106;SDS011;4589;48.690;8.952;2023-08-12T01:25:48;9.47;;;7.07;;
9106;SDS011;4589;48.690;8.952;2023-08-12T01:28:14;7.63;;;6.23;;
9106;SDS011;4589;48.690;8.952;2023-08-12T01:30:51;7.70;;;6.90;;
9106;SDS011;4589;48.690;8.952;2023-08-12T01:33:22;10.73;;;6.83;;
9106;SDS011;4589;48.690;8.952;2023-08-12T01:35:55;7.93;;;6.13;;
9106;SDS011;4589;48.690;8.952;2023-08-12T01:38:25;9.80;;;7.07;;
9106;SDS011;4589;48.690;8.952;2023-08-12T01:40:52;8.00;;;7.20;;
9106;SDS011;4589;48.690;8.952;2023-08-12T01:43:18;7.73;;;6.93;;
9106;SDS011;4589;48.690;8.952;2023-08-12T01:45:45;9.40;;;7.03;;
9106;SDS011;4589;48.690;8.952;2023-08-12T01:48:11;6.70;;;6.10;;
9106;SDS011;4589;48.690;8.952;2023-08-12T01:50:37;6.30;;;5.53;;
9106;SDS011;4589;48.690;8.952;2023-08-12T01:53:03;8.70;;;7.30;;
9106;SDS011;4589;48.690;8.952;2023-08-12T01:55:29;7.90;;;6.63;;
9106;SDS011;4589;48.690;8.952;2023-08-12T01:57:55;7.60;;;6.60;;
9106;SDS011;4589;48.690;8.952;2023-08-12T02:00:21;6.70;;;6.10;;
9106;SDS011;4589;48.690;8.952;2023-08-12T02:02:47;7.33;;;6.63;;
9106;SDS011;4589;48.690;8.952;2023-08-12T02:05:14;9.30;;;6.13;;
9106;SDS011;4589;48.690;8.952;2023-08-12T02:07:40;7.50;;;6.10;;
9106;SDS011;4589;48.690;8.952;2023-08-12T02:10:06;6.97;;;6.30;;
9106;SDS011;4589;48.690;8.952;2023-08-12T02:12:32;7.40;;;6.00;;
9106;SDS011;4589;48.690;8.952;2023-08-12T02:14:58;6.57;;;5.97;;
9106;SDS011;4589;48.690;8.952;2023-08-12T02:17:24;6.77;;;6.07;;
9106;SDS011;4589;48.690;8.952;2023-08-12T02:19:50;7.33;;;6.40;;
9106;SDS011;4589;48.690;8.952;2023-08-12T02:22:16;9.50;;;6.40;;
9106;SDS011;4589;48.690;8.952;2023-08-12T02:24:42;8.33;;;6.03;;
9106;SDS011;4589;48.690;8.952;2023-08-12T02:27:08;7.00;;;6.10;;
9106;SDS011;4589;48.690;8.952;2023-08-12T02:29:34;6.90;;;6.20;;
9106;SDS011;4589;48.690;8.952;2023-08-12T02:32:00;8.47;;;5.70;;
9106;SDS011;4589;48.690;8.952;2023-08-12T02:34:26;8.73;;;6.97;;
9106;SDS011;4589;48.690;8.952;2023-08-12T02:36:52;6.83;;;6.13;;
9106;SDS011;4589;48.690;8.952;2023-08-12T02:39:18;6.20;;;5.60;;
9106;SDS011;4589;48.690;8.952;2023-08-12T02:41:44;7.10;;;6.40;;
9106;SDS011;4589;48.690;8.952;2023-08-12T02:44:10;7.00;;;5.20;;
9106;SDS011;4589;48.690;8.952;2023-08-12T02:46:36;7.07;;;6.37;;
9106;SDS011;4589;48.690;8.952;2023-08-12T02:49:02;6.73;;;6.13;;
9106;SDS011;4589;48.690;8.952;2023-08-12T02:51:28;7.40;;;5.53;;
9106;SDS011;4589;48.690;8.952;2023-08-12T02:53:53;5.97;;;5.47;;
9106;SDS011;4589;48.690;8.952;2023-08-12T02:56:19;7.10;;;6.37;;
9106;SDS011;4589;48.690;8.952;2023-08-12T02:58:45;8.43;;;6.77;;
9106;SDS011;4589;48.690;8.952;2023-08-12T03:01:12;5.67;;;5.10;;
9106;SDS011;4589;48.690;8.952;2023-08-12T03:03:38;5.90;;;5.30;;
9106;SDS011;4589;48.690;8.952;2023-08-12T03:06:05;6.13;;;5.53;;
9106;SDS011;4589;48.690;8.952;2023-08-12T03:08:31;6.67;;;5.77;;
9106;SDS011;4589;48.690;8.952;2023-08-12T03:11:00;6.67;;;6.07;;
9106;SDS011;4589;48.690;8.952;2023-08-12T03:13:26;7.57;;;6.73;;
9106;SDS011;4589;48.690;8.952;2023-08-12T03:15:52;8.20;;;6.77;;
9106;SDS011;4589;48.690;8.952;2023-08-12T03:18:18;9.33;;;6.80;;
9106;SDS011;4589;48.690;8.952;2023-08-12T03:20:44;9.40;;;6.10;;
9106;SDS011;4589;48.690;8.952;2023-08-12T03:23:10;8.53;;;5.90;;
9106;SDS011;4589;48.690;8.952;2023-08-12T03:25:36;6.67;;;6.00;;
9106;SDS011;4589;48.690;8.952;2023-08-12T03:28:02;7.43;;;6.70;;
9106;SDS011;4589;48.690;8.952;2023-08-12T03:30:28;7.70;;;6.00;;
9106;SDS011;4589;48.690;8.952;2023-08-12T03:32:54;7.27;;;6.57;;
9106;SDS011;4589;48.690;8.952;2023-08-12T03:35:20;7.43;;;5.97;;
9106;SDS011;4589;48.690;8.952;2023-08-12T03:37:46;7.00;;;6.30;;
9106;SDS011;4589;48.690;8.952;2023-08-12T03:40:12;7.43;;;6.70;;
9106;SDS011;4589;48.690;8.952;2023-08-12T03:42:38;6.77;;;6.17;;
9106;SDS011;4589;48.690;8.952;2023-08-12T03:45:04;9.70;;;6.87;;
9106;SDS011;4589;48.690;8.952;2023-08-12T03:47:30;7.30;;;6.60;;
9106;SDS011;4589;48.690;8.952;2023-08-12T03:49:56;6.77;;;5.97;;
9106;SDS011;4589;48.690;8.952;2023-08-12T03:52:22;7.23;;;6.63;;
9106;SDS011;4589;48.690;8.952;2023-08-12T03:54:48;7.60;;;6.80;;
9106;SDS011;4589;48.690;8.952;2023-08-12T03:57:14;8.70;;;6.23;;
9106;SDS011;4589;48.690;8.952;2023-08-12T03:59:40;12.00;;;6.90;;
9106;SDS011;4589;48.690;8.952;2023-08-12T04:02:06;7.10;;;6.37;;
9106;SDS011;4589;48.690;8.952;2023-08-12T04:04:32;7.23;;;6.13;;
9106;SDS011;4589;48.690;8.952;2023-08-12T04:06:58;6.30;;;5.70;;
9106;SDS011;4589;48.690;8.952;2023-08-12T04:09:24;9.10;;;6.13;;
9106;SDS011;4589;48.690;8.952;2023-08-12T04:11:50;7.00;;;6.40;;
9106;SDS011;4589;48.690;8.952;2023-08-12T04:14:16;7.20;;;6.47;;
9106;SDS011;4589;48.690;8.952;2023-08-12T04:16:42;6.90;;;6.20;;
9106;SDS011;4589;48.690;8.952;2023-08-12T04:19:08;6.43;;;5.90;;
9106;SDS011;4589;48.690;8.952;2023-08-12T04:21:34;15.30;;;6.40;;
9106;SDS011;4589;48.690;8.952;2023-08-12T04:24:00;8.67;;;6.57;;
9106;SDS011;4589;48.690;8.952;2023-08-12T04:26:27;6.43;;;5.40;;
9106;SDS011;4589;48.690;8.952;2023-08-12T04:28:53;6.50;;;5.80;;
9106;SDS011;4589;48.690;8.952;2023-08-12T04:31:19;9.03;;;5.27;;
9106;SDS011;4589;48.690;8.952;2023-08-12T04:33:45;10.87;;;6.30;;
9106;SDS011;4589;48.690;8.952;2023-08-12T04:36:10;8.57;;;6.37;;
9106;SDS011;4589;48.690;8.952;2023-08-12T04:38:36;7.10;;;6.40;;
9106;SDS011;4589;48.690;8.952;2023-08-12T04:41:02;7.00;;;5.33;;
9106;SDS011;4589;48.690;8.952;2023-08-12T04:43:28;7.30;;;6.27;;
9106;SDS011;4589;48.690;8.952;2023-08-12T04:45:54;6.67;;;5.93;;
9106;SDS011;4589;48.690;8.952;2023-08-12T04:48:20;6.27;;;5.70;;
9106;SDS011;4589;48.690;8.952;2023-08-12T04:50:46;6.17;;;5.57;;
9106;SDS011;4589;48.690;8.952;2023-08-12T04:53:12;7.43;;;5.90;;
9106;SDS011;4589;48.690;8.952;2023-08-12T04:55:37;7.50;;;6.80;;
9106;SDS011;4589;48.690;8.952;2023-08-12T04:58:03;7.30;;;6.27;;
9106;SDS011;4589;48.690;8.952;2023-08-12T05:00:29;6.93;;;6.23;;
9106;SDS011;4589;48.690;8.952;2023-08-12T05:02:55;13.20;;;6.73;;
9106;SDS011;4589;48.690;8.952;2023-08-12T05:05:21;9.50;;;6.90;;
9106;SDS011;4589;48.690;8.952;2023-08-12T05:07:47;7.20;;;6.13;;
9106;SDS011;4589;48.690;8.952;2023-08-12T05:10:14;6.73;;;6.13;;
9106;SDS011;4589;48.690;8.952;2023-08-12T05:12:41;11.13;;;6.70;;
9106;SDS011;4589;48.690;8.952;2023-08-12T05:15:08;10.13;;;6.90;;
9106;SDS011;4589;48.690;8.952;2023-08-12T05:17:33;11.50;;;7.30;;
9106;SDS011;4589;48.690;8.952;2023-08-12T05:19:59;12.30;;;6.60;;
9106;SDS011;4589;48.690;8.952;2023-08-12T05:22:25;7.67;;;6.90;;
9106;SDS011;4589;48.690;8.952;2023-08-12T05:24:51;8.00;;;7.13;;
9106;SDS011;4589;48.690;8.952;2023-08-12T05:27:17;7.80;;;6.80;;
9106;SDS011;4589;48.690;8.952;2023-08-12T05:29:43;8.30;;;7.50;;
9106;SDS011;4589;48.690;8.952;2023-08-12T05:32:09;8.87;;;7.90;;
9106;SDS011;4589;48.690;8.952;2023-08-12T05:34:35;10.27;;;8.00;;
9106;SDS011;4589;48.690;8.952;2023-08-12T05:37:01;8.30;;;7.50;;
9106;SDS011;4589;48.690;8.952;2023-08-12T05:39:27;8.47;;;7.60;;
9106;SDS011;4589;48.690;8.952;2023-08-12T05:41:53;8.07;;;7.33;;
9106;SDS011;4589;48.690;8.952;2023-08-12T05:44:19;10.30;;;7.90;;
9106;SDS011;4589;48.690;8.952;2023-08-12T05:46:45;8.20;;;7.40;;
9106;SDS011;4589;48.690;8.952;2023-08-12T05:49:11;8.30;;;7.60;;
9106;SDS011;4589;48.690;8.952;2023-08-12T05:51:37;8.07;;;7.27;;
9106;SDS011;4589;48.690;8.952;2023-08-12T05:54:03;8.30;;;7.60;;
9106;SDS011;4589;48.690;8.952;2023-08-12T05:56:29;9.10;;;8.20;;
9106;SDS011;4589;48.690;8.952;2023-08-12T05:58:55;8.13;;;7.33;;
9106;SDS011;4589;48.690;8.952;2023-08-12T06:01:21;11.00;;;7.97;;
9106;SDS011;4589;48.690;8.952;2023-08-12T06:03:47;8.27;;;7.47;;
9106;SDS011;4589;48.690;8.952;2023-08-12T06:06:12;9.20;;;8.27;;
9106;SDS011;4589;48.690;8.952;2023-08-12T06:08:38;8.90;;;7.50;;
9106;SDS011;4589;48.690;8.952;2023-08-12T06:11:05;7.90;;;7.20;;
9106;SDS011;4589;48.690;8.952;2023-08-12T06:13:31;9.73;;;8.73;;
9106;SDS011;4589;48.690;8.952;2023-08-12T06:15:57;8.30;;;7.33;;
9106;SDS011;4589;48.690;8.952;2023-08-12T06:18:22;6.93;;;6.23;;
9106;SDS011;4589;48.690;8.952;2023-08-12T06:20:48;6.90;;;6.30;;
9106;SDS011;4589;48.690;8.952;2023-08-12T06:23:15;7.00;;;6.20;;
9106;SDS011;4589;48.690;8.952;2023-08-12T06:25:41;7.60;;;6.07;;
9106;SDS011;4589;48.690;8.952;2023-08-12T06:28:07;14.03;;;6.93;;
9106;SDS011;4589;48.690;8.952;2023-08-12T06:30:34;10.00;;;7.07;;
9106;SDS011;4589;48.690;8.952;2023-08-12T06:32:59;7.33;;;6.13;;
9106;SDS011;4589;48.690;8.952;2023-08-12T06:35:25;6.53;;;5.83;;
9106;SDS011;4589;48.690;8.952;2023-08-12T06:37:51;5.97;;;5.37;;
9106;SDS011;4589;48.690;8.952;2023-08-12T06:40:16;5.30;;;4.83;;
9106;SDS011;4589;48.690;8.952;2023-08-12T06:42:42;6.33;;;5.73;;
9106;SDS011;4589;48.690;8.952;2023-08-12T06:45:08;5.90;;;5.40;;
9106;SDS011;4589;48.690;8.952;2023-08-12T06:47:34;5.20;;;4.80;;
9106;SDS011;4589;48.690;8.952;2023-08-12T06:49:59;6.43;;;5.53;;
9106;SDS011;4589;48.690;8.952;2023-08-12T06:52:25;6.50;;;5.53;;
9106;SDS011;4589;48.690;8.952;2023-08-12T06:54:51;5.67;;;5.07;;
9106;SDS011;4589;48.690;8.952;2023-08-12T06:57:17;6.90;;;5.30;;
9106;SDS011;4589;48.690;8.952;2023-08-12T06:59:42;5.90;;;5.00;;
9106;SDS011;4589;48.690;8.952;2023-08-12T07:02:08;6.00;;;4.90;;
9106;SDS011;4589;48.690;8.952;2023-08-12T07:04:34;9.37;;;5.50;;
9106;SDS011;4589;48.690;8.952;2023-08-12T07:07:00;7.00;;;5.60;;
9106;SDS011;4589;48.690;8.952;2023-08-12T07:09:26;5.17;;;4.77;;
9106;SDS011;4589;48.690;8.952;2023-08-12T07:11:51;11.40;;;5.10;;
9106;SDS011;4589;48.690;8.952;2023-08-12T07:14:17;5.33;;;4.83;;
9106;SDS011;4589;48.690;8.952;2023-08-12T07:16:43;5.10;;;4.60;;
9106;SDS011;4589;48.690;8.952;2023-08-12T07:19:08;4.17;;;3.77;;
9106;SDS011;4589;48.690;8.952;2023-08-12T07:21:34;5.30;;;4.90;;
9106;SDS011;4589;48.690;8.952;2023-08-12T07:23:59;5.43;;;4.10;;
9106;SDS011;4589;48.690;8.952;2023-08-12T07:26:25;6.63;;;4.27;;
9106;SDS011;4589;48.690;8.952;2023-08-12T07:28:50;4.97;;;4.57;;
9106;SDS011;4589;48.690;8.952;2023-08-12T07:31:16;4.97;;;3.83;;
9106;SDS011;4589;48.690;8.952;2023-08-12T07:33:43;4.37;;;3.97;;
9106;SDS011;4589;48.690;8.952;2023-08-12T07:36:09;4.63;;;3.87;;
9106;SDS011;4589;48.690;8.952;2023-08-12T07:38:34;4.70;;;4.20;;
9106;SDS011;4589;48.690;8.952;2023-08-12T07:41:00;3.83;;;3.53;;
9106;SDS011;4589;48.690;8.952;2023-08-12T07:43:26;6.10;;;4.40;;
9106;SDS011;4589;48.690;8.952;2023-08-12T07:45:52;4.13;;;3.83;;
9106;SDS011;4589;48.690;8.952;2023-08-12T07:48:19;5.00;;;4.50;;
9106;SDS011;4589;48.690;8.952;2023-08-12T07:50:45;4.13;;;3.60;;
9106;SDS011;4589;48.690;8.952;2023-08-12T07:53:13;7.03;;;4.03;;
9106;SDS011;4589;48.690;8.952;2023-08-12T07:55:40;5.33;;;4.10;;
9106;SDS011;4589;48.690;8.952;2023-08-12T07:58:06;4.50;;;4.10;;
9106;SDS011;4589;48.690;8.952;2023-08-12T08:00:32;5.07;;;4.50;;
9106;SDS011;4589;48.690;8.952;2023-08-12T08:02:58;6.40;;;5.00;;
9106;SDS011;4589;48.690;8.952;2023-08-12T08:05:24;4.87;;;3.47;;
9106;SDS011;4589;48.690;8.952;2023-08-12T08:07:50;3.63;;;3.33;;
9106;SDS011;4589;48.690;8.952;2023-08-12T08:10:16;4.00;;;3.70;;
9106;SDS011;4589;48.690;8.952;2023-08-12T08:12:41;6.20;;;4.43;;
9106;SDS011;4589;48.690;8.952;2023-08-12T08:15:07;5.67;;;4.30;;
9106;SDS011;4589;48.690;8.952;2023-08-12T08:17:33;4.33;;;3.63;;
9106;SDS011;4589;48.690;8.952;2023-08-12T08:19:59;6.50;;;4.90;;
9106;SDS011;4589;48.690;8.952;2023-08-12T08:22:25;5.40;;;4.90;;
9106;SDS011;4589;48.690;8.952;2023-08-12T08:24:51;11.83;;;4.70;;
9106;SDS011;4589;48.690;8.952;2023-08-12T08:27:16;5.07;;;4.60;;
9106;SDS011;4589;48.690;8.952;2023-08-12T08:29:42;6.20;;;4.77;;
9106;SDS011;4589;48.690;8.952;2023-08-12T08:32:08;4.77;;;4.33;;
9106;SDS011;4589;48.690;8.952;2023-08-12T08:34:34;7.30;;;4.77;;
9106;SDS011;4589;48.690;8.952;2023-08-12T08:37:00;5.23;;;4.63;;
9106;SDS011;4589;48.690;8.952;2023-08-12T08:39:26;7.90;;;4.97;;
9106;SDS011;4589;48.690;8.952;2023-08-12T08:41:52;6.00;;;4.03;;
9106;SDS011;4589;48.690;8.952;2023-08-12T08:44:19;4.30;;;3.90;;
9106;SDS011;4589;48.690;8.952;2023-08-12T08:46:49;5.53;;;3.63;;
9106;SDS011;4589;48.690;8.952;2023-08-12T08:49:17;3.50;;;3.27;;
9106;SDS011;4589;48.690;8.952;2023-08-12T08:51:44;4.07;;;3.77;;
9106;SDS011;4589;48.690;8.952;2023-08-12T08:54:14;3.20;;;3.00;;
9106;SDS011;4589;48.690;8.952;2023-08-12T08:56:40;6.37;;;3.70;;
9106;SDS011;4589;48.690;8.952;2023-08-12T08:59:06;5.57;;;3.70;;
9106;SDS011;4589;48.690;8.952;2023-08-12T09:01:32;4.20;;;3.70;;
9106;SDS011;4589;48.690;8.952;2023-08-12T09:04:01;5.83;;;4.10;;
9106;SDS011;4589;48.690;8.952;2023-08-12T09:06:28;4.93;;;3.27;;
9106;SDS011;4589;48.690;8.952;2023-08-12T09:08:54;3.53;;;3.23;;
9106;SDS011;4589;48.690;8.952;2023-08-12T09:11:20;4.13;;;3.60;;
9106;SDS011;4589;48.690;8.952;2023-08-12T09:13:46;3.83;;;3.50;;
9106;SDS011;4589;48.690;8.952;2023-08-12T09:16:13;3.93;;;3.53;;
9106;SDS011;4589;48.690;8.952;2023-08-12T09:18:40;8.03;;;4.33;;
9106;SDS011;4589;48.690;8.952;2023-08-12T09:21:08;4.10;;;3.63;;
9106;SDS011;4589;48.690;8.952;2023-08-12T09:23:36;4.03;;;3.60;;
9106;SDS011;4589;48.690;8.952;2023-08-12T09:26:03;4.37;;;3.97;;
9106;SDS011;4589;48.690;8.952;2023-08-12T09:28:38;3.20;;;2.90;;
9106;SDS011;4589;48.690;8.952;2023-08-12T09:31:03;3.63;;;3.33;;
9106;SDS011;4589;48.690;8.952;2023-08-12T09:33:29;4.60;;;4.00;;
9106;SDS011;4589;48.690;8.952;2023-08-12T09:35:55;4.33;;;3.67;;
9106;SDS011;4589;48.690;8.952;2023-08-12T09:38:25;3.93;;;3.60;;
9106;SDS011;4589;48.690;8.952;2023-08-12T09:40:52;7.00;;;3.70;;
9106;SDS011;4589;48.690;8.952;2023-08-12T09:43:19;4.23;;;3.90;;
9106;SDS011;4589;48.690;8.952;2023-08-12T09:45:48;4.57;;;3.27;;
9106;SDS011;4589;48.690;8.952;2023-08-12T09:48:16;4.50;;;4.10;;
9106;SDS011;4589;48.690;8.952;2023-08-12T09:50:42;4.00;;;3.60;;
9106;SDS011;4589;48.690;8.952;2023-08-12T09:53:07;8.03;;;3.93;;
9106;SDS011;4589;48.690;8.952;2023-08-12T09:55:34;10.43;;;3.90;;
9106;SDS011;4589;48.690;8.952;2023-08-12T09:58:01;5.50;;;3.40;;
9106;SDS011;4589;48.690;8.952;2023-08-12T10:00:32;4.07;;;3.33;;
9106;SDS011;4589;48.690;8.952;2023-08-12T10:02:58;3.40;;;3.10;;
9106;SDS011;4589;48.690;8.952;2023-08-12T10:05:27;4.10;;;3.00;;
9106;SDS011;4589;48.690;8.952;2023-08-12T10:07:55;4.30;;;3.90;;
9106;SDS011;4589;48.690;8.952;2023-08-12T10:10:21;12.13;;;4.20;;
9106;SDS011;4589;48.690;8.952;2023-08-12T10:12:49;7.43;;;3.63;;
9106;SDS011;4589;48.690;8.952;2023-08-12T10:15:15;5.37;;;4.13;;
9106;SDS011;4589;48.690;8.952;2023-08-12T10:17:41;5.20;;;3.77;;
9106;SDS011;4589;48.690;8.952;2023-08-12T10:20:08;8.23;;;3.73;;
9106;SDS011;4589;48.690;8.952;2023-08-12T10:22:37;4.43;;;2.77;;
9106;SDS011;4589;48.690;8.952;2023-08-12T10:25:05;6.97;;;3.60;;
9106;SDS011;4589;48.690;8.952;2023-08-12T10:27:33;4.53;;;3.17;;
9106;SDS011;4589;48.690;8.952;2023-08-12T10:30:02;4.00;;;3.50;;
9106;SDS011;4589;48.690;8.952;2023-08-12T10:32:28;5.40;;;3.60;;
9106;SDS011;4589;48.690;8.952;2023-08-12T10:34:59;5.70;;;3.67;;
9106;SDS011;4589;48.690;8.952;2023-08-12T10:37:25;6.07;;;3.37;;
9106;SDS011;4589;48.690;8.952;2023-08-12T10:39:51;3.70;;;3.40;;
9106;SDS011;4589;48.690;8.952;2023-08-12T10:45:07;4.57;;;3.30;;
9106;SDS011;4589;48.690;8.952;2023-08-12T10:47:33;3.90;;;3.60;;
9106;SDS011;4589;48.690;8.952;2023-08-12T10:50:06;3.67;;;2.90;;
9106;SDS011;4589;48.690;8.952;2023-08-12T10:52:42;8.30;;;3.53;;
9106;SDS011;4589;48.690;8.952;2023-08-12T10:55:23;5.10;;;3.30;;
9106;SDS011;4589;48.690;8.952;2023-08-12T10:57:51;3.60;;;3.30;;
9106;SDS011;4589;48.690;8.952;2023-08-12T11:00:25;5.93;;;3.30;;
9106;SDS011;4589;48.690;8.952;2023-08-12T11:02:52;4.10;;;3.20;;
9106;SDS011;4589;48.690;8.952;2023-08-12T11:05:19;4.30;;;3.50;;
9106;SDS011;4589;48.690;8.952;2023-08-12T11:10:22;4.90;;;3.70;;
9106;SDS011;4589;48.690;8.952;2023-08-12T11:15:28;4.20;;;3.27;;
9106;SDS011;4589;48.690;8.952;2023-08-12T11:17:57;7.10;;;3.40;;
9106;SDS011;4589;48.690;8.952;2023-08-12T11:20:24;4.90;;;4.30;;
9106;SDS011;4589;48.690;8.952;2023-08-12T11:22:50;3.83;;;3.40;;
9106;SDS011;4589;48.690;8.952;2023-08-12T11:25:17;4.93;;;3.40;;
9106;SDS011;4589;48.690;8.952;2023-08-12T11:27:44;4.27;;;3.70;;
9106;SDS011;4589;48.690;8.952;2023-08-12T11:30:12;11.27;;;4.03;;
9106;SDS011;4589;48.690;8.952;2023-08-12T11:32:40;4.17;;;3.77;;
9106;SDS011;4589;48.690;8.952;2023-08-12T11:35:06;8.30;;;3.83;;
9106;SDS011;4589;48.690;8.952;2023-08-12T11:37:34;7.73;;;3.70;;
9106;SDS011;4589;48.690;8.952;2023-08-12T11:40:02;3.60;;;3.30;;
9106;SDS011;4589;48.690;8.952;2023-08-12T11:42:29;4.90;;;3.47;;
9106;SDS011;4589;48.690;8.952;2023-08-12T11:44:55;5.50;;;2.90;;
9106;SDS011;4589;48.690;8.952;2023-08-12T11:47:20;5.67;;;3.50;;
9106;SDS011;4589;48.690;8.952;2023-08-12T11:49:46;4.80;;;3.00;;
9106;SDS011;4589;48.690;8.952;2023-08-12T11:52:11;4.90;;;3.30;;
9106;SDS011;4589;48.690;8.952;2023-08-12T11:54:38;6.70;;;3.27;;
9106;SDS011;4589;48.690;8.952;2023-08-12T11:57:04;3.93;;;3.63;;
9106;SDS011;4589;48.690;8.952;2023-08-12T11:59:30;4.20;;;3.80;;
9106;SDS011;4589;48.690;8.952;2023-08-12T12:01:56;4.33;;;3.63;;
9106;SDS011;4589;48.690;8.952;2023-08-12T12:04:22;21.40;;;5.80;;
9106;SDS011;4589;48.690;8.952;2023-08-12T12:06:48;10.17;;;5.00;;
9106;SDS011;4589;48.690;8.952;2023-08-12T12:09:14;6.80;;;3.40;;
9106;SDS011;4589;48.690;8.952;2023-08-12T12:11:43;4.73;;;4.00;;
9106;SDS011;4589;48.690;8.952;2023-08-12T12:14:09;5.27;;;4.27;;
9106;SDS011;4589;48.690;8.952;2023-08-12T12:16:36;4.80;;;3.37;;
9106;SDS011;4589;48.690;8.952;2023-08-12T12:19:22;5.60;;;3.67;;
9106;SDS011;4589;48.690;8.952;2023-08-12T12:21:49;4.07;;;3.43;;
9106;SDS011;4589;48.690;8.952;2023-08-12T12:24:16;5.53;;;3.50;;
9106;SDS011;4589;48.690;8.952;2023-08-12T12:26:42;4.57;;;3.80;;
9106;SDS011;4589;48.690;8.952;2023-08-12T12:29:08;4.87;;;3.50;;
9106;SDS011;4589;48.690;8.952;2023-08-12T12:31:37;5.27;;;3.67;;
9106;SDS011;4589;48.690;8.952;2023-08-12T12:34:03;4.47;;;3.77;;
9106;SDS011;4589;48.690;8.952;2023-08-12T12:36:30;3.60;;;3.30;;
9106;SDS011;4589;48.690;8.952;2023-08-12T12:39:03;6.53;;;3.80;;
9106;SDS011;4589;48.690;8.952;2023-08-12T12:41:29;5.87;;;3.60;;
9106;SDS011;4589;48.690;8.952;2023-08-12T12:43:55;8.47;;;3.67;;
9106;SDS011;4589;48.690;8.952;2023-08-12T12:46:21;3.77;;;3.40;;
9106;SDS011;4589;48.690;8.952;2023-08-12T12:48:47;5.63;;;4.07;;
9106;SDS011;4589;48.690;8.952;2023-08-12T12:51:13;4.20;;;3.60;;
9106;SDS011;4589;48.690;8.952;2023-08-12T12:53:40;4.30;;;3.70;;
9106;SDS011;4589;48.690;8.952;2023-08-12T12:56:06;5.00;;;3.53;;
9106;SDS011;4589;48.690;8.952;2023-08-12T12:58:32;9.83;;;4.50;;
9106;SDS011;4589;48.690;8.952;2023-08-12T13:01:02;4.33;;;3.93;;
9106;SDS011;4589;48.690;8.952;2023-08-12T13:03:29;7.07;;;4.20;;
9106;SDS011;4589;48.690;8.952;2023-08-12T13:05:56;7.60;;;4.40;;
9106;SDS011;4589;48.690;8.952;2023-08-12T13:08:22;6.37;;;3.90;;
9106;SDS011;4589;48.690;8.952;2023-08-12T13:10:49;5.30;;;4.10;;
9106;SDS011;4589;48.690;8.952;2023-08-12T13:13:15;6.47;;;4.13;;
9106;SDS011;4589;48.690;8.952;2023-08-12T13:15:44;6.23;;;4.53;;
9106;SDS011;4589;48.690;8.952;2023-08-12T13:18:11;6.80;;;4.27;;
9106;SDS011;4589;48.690;8.952;2023-08-12T13:20:37;4.50;;;4.10;;
9106;SDS011;4589;48.690;8.952;2023-08-12T13:23:03;5.10;;;4.20;;
9106;SDS011;4589;48.690;8.952;2023-08-12T13:25:30;9.30;;;4.63;;
9106;SDS011;4589;48.690;8.952;2023-08-12T13:28:01;7.47;;;5.47;;
9106;SDS011;4589;48.690;8.952;2023-08-12T13:30:28;7.63;;;4.40;;
9106;SDS011;4589;48.690;8.952;2023-08-12T13:32:55;8.53;;;4.17;;
9106;SDS011;4589;48.690;8.952;2023-08-12T13:35:21;5.60;;;4.90;;
9106;SDS011;4589;48.690;8.952;2023-08-12T13:37:48;5.63;;;4.20;;
9106;SDS011;4589;48.690;8.952;2023-08-12T13:40:14;4.70;;;3.97;;
9106;SDS011;4589;48.690;8.952;2023-08-12T13:42:43;4.80;;;3.17;;
9106;SDS011;4589;48.690;8.952;2023-08-12T13:45:11;6.10;;;3.60;;
9106;SDS011;4589;48.690;8.952;2023-08-12T13:47:37;3.83;;;3.50;;
9106;SDS011;4589;48.690;8.952;2023-08-12T13:50:03;9.17;;;3.47;;
9106;SDS011;4589;48.690;8.952;2023-08-12T13:52:30;3.90;;;3.40;;
9106;SDS011;4589;48.690;8.952;2023-08-12T13:54:56;5.73;;;3.27;;
9106;SDS011;4589;48.690;8.952;2023-08-12T13:57:21;5.03;;;3.13;;
9106;SDS011;4589;48.690;8.952;2023-08-12T13:59:48;5.53;;;3.17;;
9106;SDS011;4589;48.690;8.952;2023-08-12T14:02:14;3.97;;;3.00;;
9106;SDS011;4589;48.690;8.952;2023-08-12T14:04:41;3.20;;;2.90;;
9106;SDS011;4589;48.690;8.952;2023-08-12T14:07:06;4.37;;;2.67;;
9106;SDS011;4589;48.690;8.952;2023-08-12T14:09:33;7.03;;;2.80;;
9106;SDS011;4589;48.690;8.952;2023-08-12T14:11:59;2.60;;;2.40;;
9106;SDS011;4589;48.690;8.952;2023-08-12T14:14:25;4.60;;;2.33;;
9106;SDS011;4589;48.690;8.952;2023-08-12T14:16:54;5.57;;;2.80;;
9106;SDS011;4589;48.690;8.952;2023-08-12T14:19:20;3.57;;;3.27;;
9106;SDS011;4589;48.690;8.952;2023-08-12T14:21:46;4.40;;;3.07;;
9106;SDS011;4589;48.690;8.952;2023-08-12T14:24:12;3.53;;;3.00;;
9106;SDS011;4589;48.690;8.952;2023-08-12T14:26:39;3.87;;;3.03;;
9106;SDS011;4589;48.690;8.952;2023-08-12T14:29:05;4.20;;;3.37;;
9106;SDS011;4589;48.690;8.952;2023-08-12T14:31:31;3.43;;;3.13;;
9106;SDS011;4589;48.690;8.952;2023-08-12T14:33:56;5.40;;;3.40;;
9106;SDS011;4589;48.690;8.952;2023-08-12T14:36:23;4.80;;;3.00;;
9106;SDS011;4589;48.690;8.952;2023-08-12T14:38:49;3.27;;;2.97;;
9106;SDS011;4589;48.690;8.952;2023-08-12T14:41:15;4.23;;;3.60;;
9106;SDS011;4589;48.690;8.952;2023-08-12T14:43:41;5.30;;;2.70;;
9106;SDS011;4589;48.690;8.952;2023-08-12T14:46:07;6.20;;;2.93;;
9106;SDS011;4589;48.690;8.952;2023-08-12T14:48:33;3.27;;;2.97;;
9106;SDS011;4589;48.690;8.952;2023-08-12T14:50:58;3.13;;;2.63;;
9106;SDS011;4589;48.690;8.952;2023-08-12T14:53:24;2.80;;;2.60;;
9106;SDS011;4589;48.690;8.952;2023-08-12T14:55:50;3.43;;;3.13;;
9106;SDS011;4589;48.690;8.952;2023-08-12T14:58:16;3.90;;;3.60;;
9106;SDS011;4589;48.690;8.952;2023-08-12T15:00:42;3.23;;;2.90;;
9106;SDS011;4589;48.690;8.952;2023-08-12T15:03:08;2.97;;;2.63;;
9106;SDS011;4589;48.690;8.952;2023-08-12T15:05:36;3.47;;;3.00;;
9106;SDS011;4589;48.690;8.952;2023-08-12T15:08:02;4.00;;;3.60;;
9106;SDS011;4589;48.690;8.952;2023-08-12T15:10:29;4.80;;;4.10;;
9106;SDS011;4589;48.690;8.952;2023-08-12T15:12:55;3.60;;;3.00;;
9106;SDS011;4589;48.690;8.952;2023-08-12T15:15:21;3.50;;;2.90;;
9106;SDS011;4589;48.690;8.952;2023-08-12T15:17:46;5.13;;;3.87;;